This is the latest recevied weather packets stored in our database for station/object CT2IRJ-11. If no packets are shown the sender has not sent any weather packets the latest 10 day(s).
| Time | Temp. | Humidity | Pressure | Rain* | Wind** | Luminosity | Snow |
|---|---|---|---|---|---|---|---|
| 1787831106 | 22.22° C | 63% | 1013.2 hPa | 0 mm | - | 151 W/m² | - |
| 1787830805 | 22.78° C | 60% | 1013.2 hPa | 0 mm | - | 733 W/m² | - |
| 1787830509 | 22.78° C | 61% | 1013.2 hPa | 0 mm | - | 557 W/m² | - |
| 1787830209 | 22.78° C | 60% | 1013.2 hPa | 0 mm | - | 798 W/m² | - |
| 1787829907 | 22.78° C | 59% | 1013.2 hPa | 0 mm | - | 586 W/m² | - |
| 1787829606 | 23.33° C | 57% | 1013.5 hPa | 0 mm | - | 796 W/m² | - |
| 1787829306 | 23.33° C | 56% | 1013.2 hPa | 0 mm | - | 324 W/m² | - |
| 1787829005 | 23.33° C | 56% | 1013.2 hPa | 0 mm | - | 805 W/m² | - |
| 1787828707 | 23.33° C | 57% | 1013.2 hPa | 0 mm | - | 764 W/m² | - |
| 1787828408 | 23.33° C | 58% | 1012.9 hPa | 0 mm | - | 706 W/m² | - |
| 1787828106 | 22.22° C | 60% | 1013.2 hPa | 0 mm | - | 724 W/m² | - |
| 1787827805 | 22.22° C | 62% | 1013.2 hPa | 0 mm | - | 721 W/m² | - |
| 1787827506 | 22.22° C | 63% | 1013.2 hPa | 0 mm | - | 730 W/m² | - |
| 1787827206 | 22.22° C | 65% | 1013.2 hPa | 0 mm | - | 180 W/m² | - |
| 1787826906 | 22.22° C | 68% | 1012.9 hPa | 0 mm | - | 688 W/m² | - |
| 1787826605 | 21.67° C | 69% | 1012.9 hPa | 0 mm | - | 703 W/m² | - |
| 1787826306 | 21.67° C | 70% | 1012.9 hPa | 0 mm | - | 825 W/m² | - |
| 1787826006 | 21.11° C | 73% | 1012.9 hPa | 0 mm | - | 720 W/m² | - |
| 1787825705 | 20° C | 78% | 1012.9 hPa | 0 mm | - | 717 W/m² | - |
| 1787825411 | 18.89° C | 86% | 1012.9 hPa | 0 mm | - | 808 W/m² | - |
| 1787825106 | 19.44° C | 85% | 1012.9 hPa | 0 mm | - | 116 W/m² | - |
| 1787824625 | 21.67° C | 78% | 1012.2 hPa | 0 mm | - | 72 W/m² | - |
| 1787824209 | 21.67° C | 76% | 1011.9 hPa | 0 mm | - | 688 W/m² | - |
| 1787823910 | 21.11° C | 78% | 1012.2 hPa | 0 mm | - | 583 W/m² | - |
| 1787823606 | 20.56° C | 79% | 1012.2 hPa | 0 mm | - | 570 W/m² | - |
* Rain latest hour (hover to see other rain measurements)
** Current wind speed in m/s (hover to see current wind gust speed)